createdAt,value
2022-09-05T00:00:26.771Z,100820.96
2022-09-05T00:01:53.559Z,100818.27
2022-09-05T00:03:21.751Z,100818.27
2022-09-05T00:04:51.208Z,100807.59
2022-09-05T00:06:13.642Z,100807.59
2022-09-05T00:07:58.851Z,100812.02
2022-09-05T00:08:57.970Z,100804.89
2022-09-05T00:10:46.397Z,100800.52
2022-09-05T00:11:50.204Z,100794.92
2022-09-05T00:13:07.239Z,100794.92
2022-09-05T00:14:56.164Z,100799.48
2022-09-05T00:15:36.920Z,100794.78
2022-09-05T00:17:01.832Z,100796.46
2022-09-05T00:24:17.472Z,100796.46
2022-09-05T00:24:22.491Z,100795.30
2022-09-05T00:24:26.449Z,100790.44
2022-09-05T00:24:27.646Z,100793.14
2022-09-05T00:24:27.840Z,100758.88
2022-09-05T00:25:14.319Z,100791.27
2022-09-05T00:26:16.818Z,100791.27
2022-09-05T00:27:55.588Z,100782.98
2022-09-05T00:29:47.798Z,100787.41
2022-09-05T00:31:08.756Z,100792.81
2022-09-05T00:31:55.254Z,100787.41
2022-09-05T00:33:16.786Z,100787.41
2022-09-05T00:34:47.108Z,100787.55
2022-09-05T00:35:53.834Z,100787.55
2022-09-05T00:36:58.114Z,100786.71
2022-09-05T00:38:14.008Z,100786.71
2022-09-05T00:39:21.109Z,100785.87
2022-09-05T00:40:31.192Z,100777.91
2022-09-05T00:41:35.532Z,100782.98
2022-09-05T00:42:40.024Z,100779.30
2022-09-05T00:43:52.029Z,100780.02
2022-09-05T00:45:01.726Z,100778.27
2022-09-05T00:46:20.603Z,100782.72
2022-09-05T00:47:48.719Z,100779.00
2022-09-05T00:49:20.103Z,100779.00
2022-09-05T00:50:30.088Z,100777.31
2022-09-05T00:51:51.878Z,100780.98
2022-09-05T00:53:06.967Z,100775.57
2022-09-05T00:54:41.196Z,100775.57
2022-09-05T00:55:54.499Z,100772.03
2022-09-05T00:57:25.488Z,100772.03
2022-09-05T00:58:41.536Z,100768.48
2022-09-05T01:00:16.989Z,100768.48
2022-09-05T01:01:52.540Z,100768.48
2022-09-05T01:03:17.653Z,100764.25
2022-09-05T01:04:30.647Z,100767.94
2022-09-05T01:05:57.198Z,100767.10
2022-09-05T01:07:20.520Z,100772.51
2022-09-05T01:08:33.112Z,100769.80
2022-09-05T01:09:48.967Z,100769.80
2022-09-05T01:11:04.871Z,100760.02
2022-09-05T01:12:31.008Z,100768.27
2022-09-05T01:13:37.988Z,100762.02
2022-09-05T01:14:50.846Z,100763.20
2022-09-05T01:16:03.771Z,100718.00
2022-09-05T01:17:21.586Z,100766.08
2022-09-05T01:18:52.010Z,100766.37
2022-09-05T01:20:19.031Z,100755.56
2022-09-05T01:21:34.912Z,100291.91
2022-09-05T01:23:00.287Z,100291.91
2022-09-05T01:24:14.849Z,100760.45
2022-09-05T01:25:47.010Z,100760.45
2022-09-05T01:27:25.522Z,100755.53
2022-09-05T01:29:16.292Z,100754.17
2022-09-05T01:29:53.256Z,100755.48
2022-09-05T01:31:27.906Z,100755.48
2022-09-05T01:33:06.580Z,100757.16
2022-09-05T01:34:32.094Z,100748.69
2022-09-05T01:36:01.972Z,100753.72
2022-09-05T01:37:34.454Z,100753.20
2022-09-05T01:39:13.219Z,100760.09
2022-09-05T01:40:14.574Z,100747.90
2022-09-05T01:41:18.383Z,100747.90
2022-09-05T01:42:45.470Z,100754.64
2022-09-05T01:44:12.025Z,100752.23
2022-09-05T01:45:29.569Z,100752.23
2022-09-05T01:46:54.632Z,100755.10
2022-09-05T01:48:08.183Z,100752.55
2022-09-05T01:49:19.294Z,100751.19
2022-09-05T01:50:38.346Z,100751.19
2022-09-05T01:51:57.053Z,100745.09
2022-09-05T01:53:21.775Z,100749.80
2022-09-05T01:54:45.033Z,100743.70
2022-09-05T01:56:11.352Z,100743.70
2022-09-05T01:57:19.525Z,100744.72
2022-09-05T01:58:44.296Z,100744.72
2022-09-05T01:59:54.023Z,100743.88
2022-09-05T02:01:25.434Z,100702.38
2022-09-05T02:02:36.769Z,100740.48
2022-09-05T02:04:07.209Z,100740.48
2022-09-05T02:05:14.250Z,100730.38
2022-09-05T02:06:29.981Z,100739.31
2022-09-05T02:07:36.964Z,100733.92
2022-09-05T02:09:11.035Z,100737.31
2022-09-05T02:10:39.578Z,100738.16
2022-09-05T02:11:49.556Z,100736.99
2022-09-05T02:13:02.272Z,100727.21
2022-09-05T02:14:11.018Z,100734.30
2022-09-05T02:15:25.681Z,100734.30
2022-09-05T02:16:38.873Z,100730.44
2022-09-05T02:17:50.653Z,100734.98
2022-09-05T02:19:03.458Z,100734.98
2022-09-05T02:20:20.808Z,100720.66
2022-09-05T02:21:55.656Z,100724.89
2022-09-05T02:22:46.176Z,100725.88
2022-09-05T02:24:05.218Z,100734.81
2022-09-05T02:25:32.129Z,100726.72
2022-09-05T02:26:44.975Z,100726.72
2022-09-05T02:28:04.440Z,100724.19
2022-09-05T02:29:00.682Z,100729.73
2022-09-05T02:30:22.317Z,100729.91
2022-09-05T02:31:43.288Z,100729.91
2022-09-05T02:33:06.852Z,100725.67
2022-09-05T02:34:22.306Z,100721.44
2022-09-05T02:35:35.323Z,100721.44
2022-09-05T02:36:57.353Z,100719.06
2022-09-05T02:39:54.935Z,100719.06
2022-09-05T02:44:54.275Z,100722.75
2022-09-05T02:45:10.555Z,100718.37
2022-09-05T02:45:11.754Z,100723.77
2022-09-05T02:45:14.075Z,100724.46
2022-09-05T02:45:20.600Z,100719.35
2022-09-05T02:45:58.904Z,100718.37
2022-09-05T02:47:15.038Z,100712.97
2022-09-05T02:48:33.149Z,100716.36
2022-09-05T02:56:23.244Z,100712.50
2022-09-05T02:57:25.576Z,100712.50
2022-09-05T02:57:25.626Z,100717.72
2022-09-05T02:57:34.740Z,100718.24
2022-09-05T02:57:35.596Z,100721.27
2022-09-05T02:57:36.373Z,100715.40
2022-09-05T02:59:10.138Z,100722.19
2022-09-05T03:00:19.838Z,100714.09
2022-09-05T03:02:05.680Z,100714.09
2022-09-05T03:03:14.877Z,100719.17
2022-09-05T03:04:39.934Z,100719.17
2022-09-05T03:05:52.032Z,100718.15
2022-09-05T03:07:02.066Z,100675.51
2022-09-05T03:08:28.191Z,100717.83
2022-09-05T03:09:50.381Z,100715.97
2022-09-05T03:11:23.000Z,100714.98
2022-09-05T03:12:45.024Z,100721.22
2022-09-05T03:14:20.824Z,100720.38
2022-09-05T03:16:04.726Z,100716.84
2022-09-05T03:17:27.295Z,100717.69
2022-09-05T03:18:53.711Z,100719.54
2022-09-05T03:20:28.110Z,100715.82
2022-09-05T03:22:08.171Z,100715.82
2022-09-05T03:23:38.760Z,100717.50
2022-09-05T03:25:07.802Z,100716.66
2022-09-05T03:26:33.602Z,100719.54
2022-09-05T03:28:12.956Z,100722.06
2022-09-05T03:29:45.076Z,100722.91
2022-09-05T03:30:54.691Z,100719.22
2022-09-05T03:32:10.225Z,100719.22
2022-09-05T03:33:41.211Z,100719.22
2022-09-05T03:35:12.187Z,100719.22
2022-09-05T03:36:45.836Z,100720.20
2022-09-05T03:38:10.074Z,100722.91
2022-09-05T03:39:33.807Z,100721.91
2022-09-05T03:41:03.146Z,100721.91
2022-09-05T03:42:36.524Z,100715.50
2022-09-05T03:43:58.621Z,100727.98
2022-09-05T03:45:29.836Z,100723.59
2022-09-05T03:46:44.720Z,100725.98
2022-09-05T03:48:53.720Z,100725.98
2022-09-05T03:56:30.983Z,100731.55
2022-09-05T03:57:06.485Z,100731.05
2022-09-05T03:57:06.608Z,100728.53
2022-09-05T03:57:18.607Z,100727.69
2022-09-05T03:57:22.569Z,100725.98
2022-09-05T03:57:25.623Z,100728.53
2022-09-05T03:58:41.982Z,100725.83
2022-09-05T03:59:53.460Z,100722.11
2022-09-05T04:01:11.008Z,100726.52
2022-09-05T04:06:22.726Z,100730.06
2022-09-05T04:08:08.802Z,100724.81
2022-09-05T04:08:16.080Z,100726.56
2022-09-05T04:08:17.536Z,100725.33
2022-09-05T04:08:18.067Z,100725.33
2022-09-05T04:08:43.309Z,100724.38
2022-09-05T04:09:59.657Z,100724.38
2022-09-05T04:11:09.887Z,100726.06
2022-09-05T04:12:16.967Z,100726.06
2022-09-05T04:13:26.424Z,100728.62
2022-09-05T04:14:48.407Z,100721.35
2022-09-05T04:16:01.437Z,100719.34
2022-09-05T04:17:10.851Z,100721.72
2022-09-05T04:18:32.862Z,100717.16
2022-09-05T04:19:43.659Z,100730.19
2022-09-05T04:21:01.592Z,100728.18
2022-09-05T04:22:33.819Z,100726.14
2022-09-05T04:24:01.080Z,100726.14
2022-09-05T04:25:36.364Z,100729.53
2022-09-05T04:27:01.066Z,100735.63
2022-09-05T04:28:19.790Z,100726.50
2022-09-05T04:29:59.551Z,100728.21
2022-09-05T04:31:26.060Z,100732.59
2022-09-05T04:33:06.172Z,100732.59
2022-09-05T04:34:31.255Z,100731.58
2022-09-05T04:35:57.779Z,100733.95
2022-09-05T04:37:05.216Z,100730.26
2022-09-05T04:38:17.754Z,100734.82
2022-09-05T04:39:24.795Z,100736.35
2022-09-05T04:40:43.855Z,100733.66
2022-09-05T04:41:52.455Z,100739.89
2022-09-05T04:42:59.918Z,100735.33
2022-09-05T04:44:20.085Z,100737.70
2022-09-05T04:45:26.881Z,100731.31
2022-09-05T04:46:48.308Z,100731.31
2022-09-05T04:47:52.936Z,100730.11
2022-09-05T04:49:13.527Z,100730.11
2022-09-05T04:50:23.691Z,100735.91
2022-09-05T04:52:00.082Z,100732.21
2022-09-05T04:53:21.069Z,100732.21
2022-09-05T04:54:34.004Z,100737.97
2022-09-05T04:55:50.764Z,100738.63
2022-09-05T04:56:55.312Z,100732.23
2022-09-05T05:00:06.205Z,100732.23
2022-09-05T05:05:44.995Z,100728.52
2022-09-05T05:06:04.195Z,100723.97
2022-09-05T05:06:09.418Z,100729.73
2022-09-05T05:06:09.428Z,100723.97
2022-09-05T05:06:15.115Z,100725.70
2022-09-05T05:06:17.345Z,100723.61
2022-09-05T05:07:09.842Z,100725.86
2022-09-05T05:08:17.203Z,100728.77
2022-09-05T05:09:29.956Z,100733.50
2022-09-05T05:14:07.673Z,100733.50
2022-09-05T05:17:22.302Z,100743.49
2022-09-05T05:17:56.381Z,100740.30
2022-09-05T05:18:11.491Z,100736.91
2022-09-05T05:18:13.758Z,100734.89
2022-09-05T05:18:13.922Z,100736.91
2022-09-05T05:18:39.448Z,100734.89
2022-09-05T05:19:36.364Z,100745.37
2022-09-05T05:20:46.516Z,100742.33
2022-09-05T05:21:53.976Z,100743.66
2022-09-05T05:23:07.393Z,100751.47
2022-09-05T05:24:21.813Z,100747.55
2022-09-05T05:25:27.263Z,100739.27
2022-09-05T05:26:59.220Z,100731.00
2022-09-05T05:28:22.795Z,100731.00
2022-09-05T05:29:23.471Z,100737.40
2022-09-05T05:30:30.835Z,100740.79
2022-09-05T05:31:49.890Z,100736.05
2022-09-05T05:32:55.603Z,100735.59
2022-09-05T05:34:07.520Z,100740.66
2022-09-05T05:35:11.232Z,100735.89
2022-09-05T05:36:18.749Z,100741.64
2022-09-05T05:37:37.672Z,100744.00
2022-09-05T05:38:47.662Z,100748.91
2022-09-05T05:40:11.765Z,100747.38
2022-09-05T05:41:18.861Z,100737.70
2022-09-05T05:42:24.497Z,100738.87
2022-09-05T05:43:34.165Z,100738.87
2022-09-05T05:44:39.128Z,100732.08
2022-09-05T05:45:45.074Z,100733.08
2022-09-05T05:47:02.894Z,100741.17
2022-09-05T05:48:09.371Z,100741.17
2022-09-05T05:49:34.496Z,100740.43
2022-09-05T05:50:59.822Z,100746.17
2022-09-05T05:52:33.397Z,100746.97
2022-09-05T05:53:42.929Z,100743.69
2022-09-05T05:55:11.268Z,100748.78
2022-09-05T05:56:52.976Z,100750.11
2022-09-05T05:58:15.934Z,100750.11
2022-09-05T05:59:34.765Z,100746.39
2022-09-05T06:00:56.933Z,100749.46
2022-09-05T06:02:25.122Z,100742.52
2022-09-05T06:03:38.369Z,100742.52
2022-09-05T06:04:51.475Z,100752.34
2022-09-05T06:06:31.332Z,100749.80
2022-09-05T06:10:49.917Z,100754.94
2022-09-05T06:14:55.456Z,100759.53
2022-09-05T06:14:55.913Z,100764.27
2022-09-05T06:15:02.502Z,100766.15
2022-09-05T06:15:02.807Z,100759.53
2022-09-05T06:15:22.165Z,100776.38
2022-09-05T06:16:29.049Z,100776.73
2022-09-05T06:17:47.879Z,100774.92
2022-09-05T06:19:09.980Z,100774.92
2022-09-05T06:22:07.464Z,100785.80
2022-09-05T06:22:08.745Z,100796.30
2022-09-05T06:23:36.694Z,100769.04
2022-09-05T06:24:35.827Z,100750.09
2022-09-05T06:26:15.673Z,100744.36
2022-09-05T06:27:28.352Z,100744.36
2022-09-05T06:28:59.333Z,100732.19
2022-09-05T06:30:18.368Z,100727.62
2022-09-05T06:31:37.251Z,100740.31
2022-09-05T06:33:12.978Z,100726.43
2022-09-05T06:34:42.259Z,100728.11
2022-09-05T06:36:04.132Z,100728.11
2022-09-05T06:37:13.187Z,100738.78
2022-09-05T06:38:39.904Z,100738.78
2022-09-05T06:40:03.523Z,100743.34
2022-09-05T06:41:22.214Z,100746.06
2022-09-05T06:42:49.948Z,100754.53
2022-09-05T06:44:02.526Z,100757.73
2022-09-05T06:45:29.060Z,100757.73
2022-09-05T06:46:54.332Z,100762.12
2022-09-05T06:47:45.449Z,100775.16
2022-09-05T06:49:29.965Z,100775.16
2022-09-05T06:50:24.574Z,100768.06
2022-09-05T06:51:44.118Z,100776.17
2022-09-05T06:53:19.556Z,100780.85
2022-09-05T06:54:28.839Z,100784.64
2022-09-05T06:55:37.513Z,100784.64
2022-09-05T06:56:54.407Z,100782.02
2022-09-05T06:58:07.288Z,100776.45
2022-09-05T06:59:30.483Z,100786.52
2022-09-05T07:00:56.716Z,100787.05
2022-09-05T07:02:58.132Z,100781.31
2022-09-05T07:03:43.969Z,100775.24
2022-09-05T07:05:24.071Z,100775.24
2022-09-05T07:06:20.578Z,100787.15
2022-09-05T07:07:33.501Z,100787.15
2022-09-05T07:08:52.766Z,100778.63
2022-09-05T07:10:16.744Z,100788.28
2022-09-05T07:11:23.110Z,100786.05
2022-09-05T07:12:37.379Z,100787.15
2022-09-05T07:13:59.505Z,100787.15
2022-09-05T07:15:28.112Z,100789.85
2022-09-05T07:16:39.341Z,100789.85
2022-09-05T07:18:09.447Z,100788.39
2022-09-05T07:19:17.401Z,100801.56
2022-09-05T07:20:28.602Z,100809.71
2022-09-05T07:21:44.433Z,100812.77
2022-09-05T07:22:57.145Z,100810.78
2022-09-05T07:24:11.508Z,100821.03
2022-09-05T07:25:18.864Z,100828.58
2022-09-05T07:26:49.598Z,100827.64
2022-09-05T07:28:25.986Z,100829.73
2022-09-05T07:28:57.495Z,100836.07
2022-09-05T07:30:05.770Z,100829.13
2022-09-05T07:31:12.868Z,100829.71
2022-09-05T07:32:24.208Z,100837.02
2022-09-05T07:33:28.346Z,100837.02
2022-09-05T07:34:37.905Z,100842.47
2022-09-05T07:35:43.716Z,100832.69
2022-09-05T07:36:51.324Z,100840.15
2022-09-05T07:38:01.408Z,100853.36
2022-09-05T07:39:27.362Z,100839.47
2022-09-05T07:40:26.034Z,100839.47
2022-09-05T07:41:32.557Z,100838.30
2022-09-05T07:42:43.668Z,100830.36
2022-09-05T07:43:52.385Z,100816.48
2022-09-05T07:45:01.459Z,100817.13
2022-09-05T07:46:20.954Z,100823.92
2022-09-05T07:47:28.045Z,100823.23
2022-09-05T07:48:35.744Z,100819.47
2022-09-05T07:50:45.813Z,100819.47
2022-09-05T07:55:37.859Z,100829.11
2022-09-05T07:56:49.106Z,100824.22
2022-09-05T07:56:58.897Z,100824.22
2022-09-05T07:56:59.387Z,100842.49
2022-09-05T07:57:01.149Z,100831.31
2022-09-05T07:58:15.092Z,100823.87
2022-09-05T07:59:22.168Z,100822.36
2022-09-05T08:00:29.811Z,100814.91
2022-09-05T08:01:39.632Z,100809.50
2022-09-05T08:02:47.665Z,100809.50
2022-09-05T08:04:02.417Z,100812.36
2022-09-05T08:05:04.954Z,100811.31
2022-09-05T08:06:34.347Z,100807.61
2022-09-05T08:07:48.972Z,100810.97
2022-09-05T08:09:00.439Z,100810.97
2022-09-05T08:10:06.350Z,100818.58
2022-09-05T08:11:24.878Z,100821.12
2022-09-05T08:12:28.409Z,100836.66
2022-09-05T08:13:46.285Z,100836.66
2022-09-05T08:15:23.323Z,100855.60
2022-09-05T08:16:28.169Z,100845.95
2022-09-05T08:17:35.351Z,100852.88
2022-09-05T08:19:07.484Z,100859.61
2022-09-05T08:20:37.293Z,100859.61
2022-09-05T08:21:47.946Z,100850.29
2022-09-05T08:23:00.759Z,100853.53
2022-09-05T08:24:24.308Z,100855.04
2022-09-05T08:25:56.978Z,100852.99
2022-09-05T08:26:46.771Z,100861.65
2022-09-05T08:28:18.855Z,100861.65
2022-09-05T08:29:37.731Z,100860.63
2022-09-05T08:30:47.304Z,100858.61
2022-09-05T08:32:16.372Z,100863.19
2022-09-05T08:33:26.594Z,100853.20
2022-09-05T08:34:44.986Z,100850.50
2022-09-05T08:35:59.393Z,100844.04
2022-09-05T08:37:04.371Z,100833.52
2022-09-05T08:38:19.353Z,100830.13
2022-09-05T08:39:26.566Z,100816.09
2022-09-05T08:40:43.991Z,100816.09
2022-09-05T08:42:08.980Z,100814.92
2022-09-05T08:46:37.587Z,100814.80
2022-09-05T08:46:52.865Z,100803.84
2022-09-05T08:48:09.656Z,100801.18
2022-09-05T10:12:06.955Z,100747.88
2022-09-05T10:13:46.209Z,100751.81
2022-09-05T10:15:31.432Z,100747.33
2022-09-05T10:16:34.538Z,100747.33
2022-09-05T10:17:58.063Z,100737.58
2022-09-05T10:21:16.382Z,100738.21
2022-09-05T10:22:42.339Z,100738.87
2022-09-05T10:23:58.403Z,100740.37
2022-09-05T10:25:20.335Z,100738.09
2022-09-05T10:26:56.614Z,100738.09
2022-09-05T10:28:09.234Z,100737.80
2022-09-05T10:29:38.619Z,100731.78
2022-09-05T10:32:49.230Z,100731.78
2022-09-05T10:34:50.679Z,100733.59
2022-09-05T10:35:09.320Z,100724.85
2022-09-05T10:35:16.769Z,100721.78
2022-09-05T10:35:40.468Z,100721.25
2022-09-05T10:36:47.633Z,100721.25
2022-09-05T10:38:10.324Z,100715.08
2022-09-05T10:39:26.139Z,100713.23
2022-09-05T10:40:36.252Z,100718.78
2022-09-05T10:41:51.914Z,100712.33
2022-09-05T10:43:13.823Z,100711.70
2022-09-05T10:44:44.524Z,100705.64
2022-09-05T10:45:51.544Z,100705.64
2022-09-05T10:47:07.302Z,100723.34
2022-09-05T10:48:14.356Z,100723.34
2022-09-05T10:49:21.354Z,100725.72
2022-09-05T10:50:31.582Z,100735.99
2022-09-05T10:51:52.003Z,100735.99
2022-09-05T10:53:01.666Z,100732.23
2022-09-05T10:54:26.674Z,100732.23
2022-09-05T10:55:47.683Z,100753.78
2022-09-05T10:57:10.563Z,100753.78
2022-09-05T10:58:47.082Z,100751.50
2022-09-05T11:02:16.239Z,100752.41
2022-09-05T11:02:26.038Z,100747.27
2022-09-05T11:02:27.235Z,100752.41
2022-09-05T11:03:26.562Z,100741.91
2022-09-05T11:04:49.406Z,100737.39
2022-09-05T11:05:48.381Z,100737.39
2022-09-05T11:07:07.014Z,100740.48
2022-09-05T11:08:16.892Z,100737.84
2022-09-05T11:09:41.949Z,100737.84
2022-09-05T11:11:05.617Z,100747.73
2022-09-05T11:12:32.197Z,100746.05
2022-09-05T11:13:39.167Z,100746.05
2022-09-05T11:14:55.797Z,100745.21
2022-09-05T11:16:31.553Z,100737.23
2022-09-05T11:17:38.653Z,100730.42
2022-09-05T11:19:06.687Z,100731.66
2022-09-05T11:20:36.506Z,100728.58
2022-09-05T11:22:21.987Z,100728.58
2022-09-05T11:23:25.578Z,100727.03
2022-09-05T11:24:35.361Z,100727.03
2022-09-05T11:25:41.318Z,100728.16
2022-09-05T11:27:23.201Z,100721.61
2022-09-05T11:27:57.437Z,100712.08
2022-09-05T11:29:09.881Z,100710.66
2022-09-05T11:30:29.045Z,100710.66
2022-09-05T11:31:30.405Z,100712.66
2022-09-05T11:38:11.828Z,100707.80
2022-09-05T11:39:51.485Z,100707.80
2022-09-05T11:39:53.269Z,100705.94
2022-09-05T11:39:56.620Z,100706.50
2022-09-05T11:40:02.600Z,100701.41
2022-09-05T11:40:10.677Z,100705.94
2022-09-05T11:41:05.201Z,100699.26
2022-09-05T11:42:19.205Z,100698.25
2022-09-05T11:44:08.446Z,100698.25
2022-09-05T11:45:26.955Z,100695.14
2022-09-05T11:46:53.574Z,100698.41
2022-09-05T11:48:08.239Z,100698.41
2022-09-05T11:49:42.343Z,100698.55
2022-09-05T11:51:16.407Z,100693.27
2022-09-05T11:52:38.302Z,100693.27
2022-09-05T11:53:45.316Z,100690.20
2022-09-05T11:55:25.278Z,100688.67
2022-09-05T11:56:50.928Z,100678.34
2022-09-05T11:58:27.100Z,100679.30
2022-09-05T11:59:33.717Z,100679.30
2022-09-05T12:01:38.200Z,100675.41
2022-09-05T12:02:37.852Z,100673.19
2022-09-05T12:03:59.330Z,100668.20
2022-09-05T12:05:48.523Z,100676.66
2022-09-05T12:06:35.523Z,100677.50
2022-09-05T12:07:59.271Z,100677.50
2022-09-05T12:09:07.374Z,100679.11
2022-09-05T12:11:59.837Z,100678.42
2022-09-05T12:13:12.620Z,100674.25
2022-09-05T12:14:49.300Z,100674.25
2022-09-05T12:16:07.698Z,100679.18
2022-09-05T12:16:58.056Z,100679.18
2022-09-05T12:18:26.343Z,100678.30
2022-09-05T12:19:48.811Z,100687.88
2022-09-05T12:20:58.458Z,100680.89
2022-09-05T12:22:26.183Z,100680.58
2022-09-05T12:24:24.779Z,100684.53
2022-09-05T12:25:24.011Z,100685.16
2022-09-05T12:27:38.758Z,100682.77
2022-09-05T12:27:42.550Z,100682.77
2022-09-05T12:29:32.630Z,100677.33
2022-09-05T12:30:00.858Z,100677.33
2022-09-05T12:33:32.715Z,100673.95
2022-09-05T12:35:52.997Z,100679.60
2022-09-05T12:36:07.820Z,100679.60
2022-09-05T12:36:12.660Z,100674.43
2022-09-05T12:39:40.254Z,100672.72
2022-09-05T12:40:40.421Z,100678.64
2022-09-05T12:40:54.997Z,100673.95
2022-09-05T12:41:33.193Z,100674.87
2022-09-05T12:41:41.044Z,100676.13
2022-09-05T12:41:45.265Z,100674.87
2022-09-05T12:43:01.760Z,100674.34
2022-09-05T12:44:38.963Z,100674.34
2022-09-05T12:45:45.131Z,100666.95
2022-09-05T12:46:59.301Z,100669.61
2022-09-05T12:48:20.138Z,100663.96
2022-09-05T12:49:37.839Z,100663.96
2022-09-05T12:50:57.313Z,100661.52
2022-09-05T12:52:05.941Z,100658.34
2022-09-05T12:53:15.645Z,100658.34
2022-09-05T12:54:33.665Z,100667.05
2022-09-05T12:56:12.155Z,100662.05
2022-09-05T12:59:55.259Z,100669.44
2022-09-05T13:02:59.400Z,100669.44
2022-09-05T13:03:05.043Z,100668.51
2022-09-05T13:03:09.723Z,100661.84
2022-09-05T13:03:13.606Z,100667.22
2022-09-05T13:03:27.032Z,100667.22
2022-09-05T13:04:17.838Z,100661.24
2022-09-05T13:05:23.754Z,100661.24
2022-09-05T13:06:44.298Z,100613.30
2022-09-05T13:07:54.184Z,100641.19
2022-09-05T13:09:01.167Z,100646.42
2022-09-05T13:12:39.385Z,100646.42
2022-09-05T13:14:47.604Z,100644.03
2022-09-05T13:14:54.123Z,100651.14
2022-09-05T13:14:58.211Z,100651.14
2022-09-05T13:15:22.860Z,100651.80
2022-09-05T13:16:07.361Z,100654.52
2022-09-05T13:17:13.379Z,100654.52
2022-09-05T13:18:23.002Z,100650.75
2022-09-05T13:19:30.002Z,100641.25
2022-09-05T13:20:37.308Z,100648.84
2022-09-05T13:21:43.918Z,100652.45
2022-09-05T13:22:50.235Z,100652.45
2022-09-05T13:24:02.963Z,100652.00
2022-09-05T13:25:09.894Z,100652.00
2022-09-05T13:26:23.527Z,100652.89
2022-09-05T13:27:34.663Z,100652.89
2022-09-05T13:28:51.940Z,100655.73
2022-09-05T13:34:42.845Z,100655.73
2022-09-05T13:37:54.208Z,100655.43
2022-09-05T13:37:57.931Z,100650.95
2022-09-05T13:37:59.534Z,100651.27
2022-09-05T13:38:06.457Z,100647.05
2022-09-05T13:38:11.030Z,100647.05
2022-09-05T13:38:20.329Z,100655.88
2022-09-05T13:38:48.249Z,100643.70
2022-09-05T13:39:59.635Z,100643.70
2022-09-05T13:41:04.164Z,100640.64
2022-09-05T13:42:10.842Z,100640.64
2022-09-05T13:43:17.692Z,100645.25
2022-09-05T13:44:26.159Z,100649.02
2022-09-05T13:45:29.976Z,100657.80
2022-09-05T13:46:43.016Z,100657.80
2022-09-05T13:48:06.090Z,100662.41
2022-09-05T13:49:31.637Z,100642.56
2022-09-05T13:50:22.078Z,100642.56
2022-09-05T13:51:40.656Z,100653.50
2022-09-05T13:52:59.390Z,100647.67
2022-09-05T13:57:36.911Z,100645.91
2022-09-05T13:58:56.490Z,100655.17
2022-09-05T14:00:27.231Z,100655.17
2022-09-05T14:01:19.205Z,100652.09
2022-09-05T14:03:29.851Z,100653.89
2022-09-05T14:03:55.888Z,100653.89
2022-09-05T14:05:15.979Z,100664.20
2022-09-05T14:06:46.912Z,100662.05
2022-09-05T14:07:52.289Z,100662.05
2022-09-05T14:10:41.066Z,100662.17
2022-09-05T14:12:07.661Z,100675.79
2022-09-05T14:13:29.603Z,100672.80
2022-09-05T14:15:58.953Z,100681.66
2022-09-05T14:18:27.714Z,100681.76
2022-09-05T14:19:35.113Z,100671.61
2022-09-05T14:20:58.889Z,100685.97
2022-09-05T14:22:09.083Z,100685.97
2022-09-05T14:23:16.209Z,100684.01
2022-09-05T14:24:27.503Z,100681.46
2022-09-05T14:25:31.512Z,100676.23
2022-09-05T14:26:48.146Z,100687.10
2022-09-05T14:27:52.592Z,100687.10
2022-09-05T14:29:02.497Z,100687.83
2022-09-05T14:31:03.143Z,100575.48
2022-09-05T14:37:36.882Z,100686.07
2022-09-05T14:37:41.234Z,100693.84
2022-09-05T14:37:41.622Z,100687.92
2022-09-05T14:37:54.600Z,100689.97
2022-09-05T14:38:01.356Z,100693.84
2022-09-05T14:38:14.825Z,100691.64
2022-09-05T14:39:45.348Z,100700.25
2022-09-05T14:41:15.192Z,100691.06
2022-09-05T14:42:46.299Z,100694.45
2022-09-05T14:43:56.744Z,100694.45
2022-09-05T14:45:27.270Z,100684.97
2022-09-05T14:46:45.991Z,100685.55
2022-09-05T14:48:16.805Z,100674.19
2022-09-05T14:49:26.853Z,100681.58
2022-09-05T14:50:36.593Z,100689.05
2022-09-05T14:51:43.594Z,100691.60
2022-09-05T14:55:36.906Z,100684.95
2022-09-05T14:58:55.318Z,100689.27
2022-09-05T15:02:43.047Z,100690.98
2022-09-05T15:02:49.132Z,100695.57
2022-09-05T15:02:50.082Z,100694.70
2022-09-05T15:02:53.584Z,100694.70
2022-09-05T15:03:05.314Z,100701.47
2022-09-05T15:05:19.402Z,100699.79
2022-09-05T15:06:28.087Z,100716.80
2022-09-05T15:07:40.824Z,100716.80
2022-09-05T15:11:24.154Z,100694.98
2022-09-05T15:12:14.426Z,100694.98
2022-09-05T15:12:24.307Z,100692.64
2022-09-05T15:12:44.169Z,100697.77
2022-09-05T15:13:46.400Z,100649.00
2022-09-05T15:14:56.358Z,100649.00
2022-09-05T15:16:12.358Z,100701.77
2022-09-05T15:17:19.312Z,100701.77
2022-09-05T15:18:28.335Z,100694.53
2022-09-05T15:20:05.530Z,100704.36
2022-09-05T15:21:33.840Z,100701.00
2022-09-05T15:22:31.415Z,100695.98
2022-09-05T15:23:37.092Z,100703.17
2022-09-05T15:24:41.094Z,100703.17
2022-09-05T15:25:51.602Z,100700.83
2022-09-05T15:26:59.334Z,100704.75
2022-09-05T15:28:06.317Z,100704.75
2022-09-05T15:29:14.683Z,100711.37
2022-09-05T15:30:34.793Z,100706.12
2022-09-05T15:31:36.490Z,100698.88
2022-09-05T15:32:40.575Z,100692.50
2022-09-05T15:33:44.999Z,100695.70
2022-09-05T15:34:53.894Z,100707.06
2022-09-05T15:36:01.949Z,100711.14
2022-09-05T15:37:23.829Z,100700.98
2022-09-05T15:38:56.181Z,100700.98
2022-09-05T15:39:45.189Z,100707.44
2022-09-05T15:41:26.877Z,100715.10
2022-09-05T15:42:34.160Z,100710.04
2022-09-05T15:43:55.870Z,100705.98
2022-09-05T15:45:10.930Z,100701.03
2022-09-05T15:46:09.290Z,100706.81
2022-09-05T15:47:16.295Z,100687.36
2022-09-05T15:48:22.936Z,100687.36
2022-09-05T15:49:32.902Z,100715.46
2022-09-05T15:50:42.952Z,100715.46
2022-09-05T15:51:49.938Z,100709.17
2022-09-05T15:52:56.128Z,100703.75
2022-09-05T15:54:02.344Z,100693.26
2022-09-05T15:56:34.093Z,100709.53
2022-09-05T15:57:42.614Z,100712.44
2022-09-05T15:58:55.780Z,100722.44
2022-09-05T16:00:08.564Z,100711.80
2022-09-05T16:01:30.270Z,100710.77
2022-09-05T16:02:26.163Z,100713.67
2022-09-05T16:05:36.915Z,100711.68
2022-09-05T16:08:39.785Z,100717.39
2022-09-05T16:10:29.081Z,100712.68
2022-09-05T16:10:34.100Z,100712.00
2022-09-05T16:10:38.383Z,100711.68
2022-09-05T16:10:43.466Z,100711.16
2022-09-05T16:11:08.367Z,100711.16
2022-09-05T16:12:54.789Z,100717.42
2022-09-05T16:14:22.666Z,100726.95
2022-09-05T16:19:32.149Z,100722.23
2022-09-05T16:23:14.288Z,100724.94
2022-09-05T16:23:14.594Z,100724.94
2022-09-05T16:23:24.109Z,100629.31
2022-09-05T16:23:31.032Z,100629.31
2022-09-05T16:23:33.825Z,100725.63
2022-09-05T16:23:46.098Z,100725.00
2022-09-05T16:24:58.309Z,100734.12
2022-09-05T16:25:59.811Z,100734.12